Spadeadam, United Kingdom
Current Conditions -  °F | °C
As of 3:20 PM on Thursday 23 Oct 2014 (Local Time) from EGNC Reporting Station
Rain Showers Rain Showers  
Wind Chill: 59°   Ceiling: Unl
Heat Index: 59°   Visibility: 6mi
Dew Point: 57°   Wind: 13mph
Humidity: 94%   Direction: 230°SW
Pressure: 29.8"   Gusts: NA
Location:  55.05°N, 2.55°W
Report Text: EGNC 231420Z 23011KT 9999 VCSH SCT015 SCT022 15/14 Q1009
Loading
Personal Weather Stations






























Interactive Weather Map
Tropical Storm Tracking
New forecast layout! Learn more

10-Day Weather Forecast

Advertisements
Track Severe Weather on mobile